createdAt,value
2019-01-30T00:01:06.221Z,1.85
2019-01-30T00:02:10.733Z,1.57
2019-01-30T00:03:15.430Z,1.92
2019-01-30T00:04:19.905Z,1.80
2019-01-30T00:05:24.391Z,2.10
2019-01-30T00:06:28.874Z,1.70
2019-01-30T00:07:33.372Z,1.77
2019-01-30T00:08:37.867Z,1.60
2019-01-30T00:09:42.378Z,1.90
2019-01-30T00:10:47.013Z,2.10
2019-01-30T00:11:51.597Z,1.70
2019-01-30T00:12:56.144Z,1.85
2019-01-30T00:14:00.644Z,1.60
2019-01-30T00:15:09.572Z,1.87
2019-01-30T00:16:14.162Z,1.85
2019-01-30T00:17:18.671Z,1.72
2019-01-30T00:18:23.203Z,2.00
2019-01-30T00:19:27.753Z,1.82
2019-01-30T00:20:32.344Z,1.75
2019-01-30T00:21:36.919Z,1.72
2019-01-30T00:22:41.678Z,1.70
2019-01-30T00:23:46.200Z,2.02
2019-01-30T00:24:50.703Z,2.00
2019-01-30T00:25:55.213Z,2.03
2019-01-30T00:26:59.699Z,2.07
2019-01-30T00:28:04.661Z,1.73
2019-01-30T00:29:09.136Z,1.90
2019-01-30T00:30:18.882Z,1.80
2019-01-30T00:31:23.523Z,1.87
2019-01-30T00:32:28.321Z,1.80
2019-01-30T00:33:32.900Z,1.80
2019-01-30T00:34:37.968Z,2.27
2019-01-30T00:35:42.486Z,1.95
2019-01-30T00:36:47.004Z,2.00
2019-01-30T00:37:53.644Z,1.77
2019-01-30T00:38:58.176Z,1.80
2019-01-30T00:40:05.011Z,1.92
2019-01-30T00:41:09.521Z,1.80
2019-01-30T00:42:14.034Z,1.90
2019-01-30T00:43:18.702Z,1.73
2019-01-30T00:44:23.206Z,1.75
2019-01-30T00:45:27.719Z,1.77
2019-01-30T00:46:32.487Z,2.05
2019-01-30T00:47:37.016Z,2.10
2019-01-30T00:48:41.526Z,2.08
2019-01-30T00:49:46.053Z,1.70
2019-01-30T00:50:50.544Z,1.97
2019-01-30T00:51:55.037Z,1.87
2019-01-30T00:52:59.559Z,1.77
2019-01-30T00:54:04.337Z,1.92
2019-01-30T00:55:11.004Z,1.82
2019-01-30T00:56:15.537Z,1.80
2019-01-30T00:57:20.070Z,1.77
2019-01-30T00:58:24.688Z,2.00
2019-01-30T00:59:29.202Z,2.05
2019-01-30T01:00:33.865Z,1.92
2019-01-30T01:01:38.452Z,2.10
2019-01-30T01:02:43.079Z,1.63
2019-01-30T01:03:47.594Z,1.87
2019-01-30T01:04:52.200Z,1.82
2019-01-30T01:05:56.782Z,1.90
2019-01-30T01:07:01.336Z,1.73
2019-01-30T01:08:05.887Z,1.70
2019-01-30T01:09:10.983Z,1.67
2019-01-30T01:10:17.978Z,2.07
2019-01-30T01:11:22.621Z,1.82
2019-01-30T01:12:27.809Z,1.80
2019-01-30T01:13:32.295Z,1.90
2019-01-30T01:14:36.825Z,1.90
2019-01-30T01:15:41.418Z,1.90
2019-01-30T01:16:45.951Z,1.90
2019-01-30T01:17:50.565Z,2.05
2019-01-30T01:18:55.063Z,1.90
2019-01-30T01:19:59.623Z,2.00
2019-01-30T01:21:04.253Z,1.57
2019-01-30T01:22:08.768Z,1.40
2019-01-30T01:23:13.566Z,1.90
2019-01-30T01:24:18.094Z,1.80
2019-01-30T01:25:22.668Z,1.77
2019-01-30T01:26:28.172Z,1.92
2019-01-30T01:27:32.672Z,1.80
2019-01-30T01:28:37.171Z,1.63
2019-01-30T01:29:41.672Z,1.97
2019-01-30T01:30:46.254Z,1.80
2019-01-30T01:31:50.729Z,1.87
2019-01-30T01:32:55.433Z,1.80
2019-01-30T01:34:00.017Z,2.00
2019-01-30T01:35:05.885Z,1.80
2019-01-30T01:36:10.406Z,2.05
2019-01-30T01:37:14.916Z,1.92
2019-01-30T01:38:19.489Z,2.10
2019-01-30T01:39:24.046Z,1.85
2019-01-30T01:40:28.625Z,2.05
2019-01-30T01:41:33.135Z,1.60
2019-01-30T01:42:37.619Z,1.93
2019-01-30T01:43:41.823Z,1.70
2019-01-30T01:44:46.187Z,1.80
2019-01-30T01:45:50.805Z,2.00
2019-01-30T01:46:55.292Z,1.90
2019-01-30T01:48:01.432Z,2.07
2019-01-30T01:49:05.909Z,1.90
2019-01-30T01:50:13.735Z,1.70
2019-01-30T01:51:18.277Z,1.83
2019-01-30T01:52:22.792Z,2.00
2019-01-30T01:53:27.294Z,1.80
2019-01-30T01:54:32.944Z,1.85
2019-01-30T01:55:37.461Z,2.12
2019-01-30T01:56:41.992Z,2.08
2019-01-30T01:57:46.573Z,1.90
2019-01-30T01:58:51.884Z,2.10
2019-01-30T01:59:56.423Z,1.90
2019-01-30T02:01:02.267Z,1.80
2019-01-30T02:02:06.879Z,2.08
2019-01-30T02:03:11.391Z,1.95
2019-01-30T02:04:15.978Z,2.02
2019-01-30T02:05:22.323Z,1.77
2019-01-30T02:06:26.838Z,1.93
2019-01-30T02:07:31.349Z,1.98
2019-01-30T02:08:35.870Z,1.90
2019-01-30T02:09:40.367Z,1.90
2019-01-30T02:10:44.888Z,2.20
2019-01-30T02:11:49.477Z,1.80
2019-01-30T02:12:54.361Z,1.70
2019-01-30T02:13:58.881Z,1.95
2019-01-30T02:15:04.228Z,2.10
2019-01-30T02:16:11.095Z,1.80
2019-01-30T02:17:15.694Z,2.00
2019-01-30T02:18:20.207Z,2.10
2019-01-30T02:19:24.710Z,1.92
2019-01-30T02:20:31.553Z,1.82
2019-01-30T02:21:36.069Z,1.92
2019-01-30T02:22:40.577Z,2.02
2019-01-30T02:23:45.066Z,1.67
2019-01-30T02:24:49.574Z,2.07
2019-01-30T02:25:54.050Z,2.10
2019-01-30T02:26:58.551Z,2.10
2019-01-30T02:28:03.020Z,2.00
2019-01-30T02:29:07.580Z,2.10
2019-01-30T02:30:17.689Z,2.20
2019-01-30T02:31:22.444Z,1.70
2019-01-30T02:32:27.047Z,2.00
2019-01-30T02:33:31.574Z,1.70
2019-01-30T02:34:36.085Z,1.92
2019-01-30T02:35:40.642Z,2.10
2019-01-30T02:36:57.423Z,1.80
2019-01-30T02:38:01.909Z,1.77
2019-01-30T02:39:07.724Z,1.90
2019-01-30T02:40:16.792Z,1.73
2019-01-30T02:41:21.372Z,1.70
2019-01-30T02:42:25.894Z,2.00
2019-01-30T02:43:30.389Z,1.80
2019-01-30T02:44:34.894Z,2.07
2019-01-30T02:45:40.410Z,1.60
2019-01-30T02:46:44.933Z,1.98
2019-01-30T02:47:49.500Z,2.00
2019-01-30T02:48:54.411Z,1.90
2019-01-30T02:49:58.933Z,1.90
2019-01-30T02:51:03.627Z,1.85
2019-01-30T02:52:08.235Z,1.75
2019-01-30T02:53:12.754Z,1.50
2019-01-30T02:54:17.272Z,1.98
2019-01-30T02:55:22.026Z,1.92
2019-01-30T02:56:26.542Z,1.73
2019-01-30T02:57:31.027Z,2.00
2019-01-30T02:58:35.645Z,1.83
2019-01-30T02:59:40.123Z,2.20
2019-01-30T03:00:44.624Z,1.80
2019-01-30T03:01:50.817Z,2.00
2019-01-30T03:02:57.207Z,1.83
2019-01-30T03:04:01.683Z,1.63
2019-01-30T03:05:09.248Z,1.83
2019-01-30T03:06:13.718Z,1.77
2019-01-30T03:07:18.297Z,1.75
2019-01-30T03:08:22.826Z,2.00
2019-01-30T03:09:27.342Z,1.77
2019-01-30T03:10:31.883Z,1.47
2019-01-30T03:11:36.420Z,1.80
2019-01-30T03:12:41.010Z,1.72
2019-01-30T03:13:45.544Z,2.00
2019-01-30T03:14:50.054Z,1.67
2019-01-30T03:15:54.558Z,1.60
2019-01-30T03:16:59.057Z,1.80
2019-01-30T03:18:03.949Z,1.60
2019-01-30T03:19:08.519Z,1.60
2019-01-30T03:20:18.262Z,1.82
2019-01-30T03:21:22.779Z,1.65
2019-01-30T03:22:28.337Z,1.80
2019-01-30T03:23:32.846Z,1.70
2019-01-30T03:24:37.366Z,1.80
2019-01-30T03:25:42.328Z,2.17
2019-01-30T03:26:46.887Z,1.40
2019-01-30T03:27:51.540Z,1.90
2019-01-30T03:28:56.081Z,1.90
2019-01-30T03:30:00.626Z,2.10
2019-01-30T03:31:17.585Z,1.65
2019-01-30T03:32:13.790Z,1.90
2019-01-30T03:33:18.475Z,1.70
2019-01-30T03:34:22.984Z,2.00
2019-01-30T03:35:27.684Z,1.83
2019-01-30T03:36:32.193Z,1.53
2019-01-30T03:37:36.773Z,1.82
2019-01-30T03:38:41.272Z,1.80
2019-01-30T03:39:45.741Z,1.70
2019-01-30T03:40:50.340Z,1.33
2019-01-30T03:41:54.856Z,1.75
2019-01-30T03:42:59.368Z,1.95
2019-01-30T03:44:05.388Z,1.77
2019-01-30T03:45:12.418Z,1.70
2019-01-30T03:46:17.010Z,1.70
2019-01-30T03:47:21.619Z,1.62
2019-01-30T03:48:26.137Z,1.50
2019-01-30T03:49:30.653Z,1.90
2019-01-30T03:50:35.183Z,1.57
2019-01-30T03:51:41.266Z,1.50
2019-01-30T03:52:45.912Z,1.67
2019-01-30T03:53:50.386Z,1.70
2019-01-30T03:54:54.903Z,1.93
2019-01-30T03:56:02.090Z,1.90
2019-01-30T03:57:08.677Z,1.80
2019-01-30T03:58:13.164Z,1.50
2019-01-30T03:59:17.838Z,1.43
2019-01-30T04:00:24.662Z,1.60
2019-01-30T04:01:29.133Z,1.63
2019-01-30T04:02:33.734Z,1.80
2019-01-30T04:03:38.271Z,1.70
2019-01-30T04:04:42.759Z,1.73
2019-01-30T04:05:47.378Z,1.50
2019-01-30T04:06:52.364Z,1.85
2019-01-30T04:07:56.920Z,1.50
2019-01-30T04:09:01.560Z,1.65
2019-01-30T04:10:09.286Z,1.42
2019-01-30T04:11:13.882Z,1.87
2019-01-30T04:12:18.505Z,1.60
2019-01-30T04:13:23.107Z,1.80
2019-01-30T04:14:27.597Z,1.43
2019-01-30T04:15:32.179Z,1.50
2019-01-30T04:16:36.958Z,1.87
2019-01-30T04:17:41.529Z,1.60
2019-01-30T04:18:46.045Z,1.27
2019-01-30T04:19:50.557Z,1.60
2019-01-30T04:20:55.100Z,1.65
2019-01-30T04:21:59.645Z,1.80
2019-01-30T04:23:04.342Z,1.52
2019-01-30T04:24:08.867Z,2.07
2019-01-30T04:25:13.578Z,1.60
2019-01-30T04:26:18.100Z,1.77
2019-01-30T04:27:22.620Z,1.70
2019-01-30T04:28:27.144Z,1.65
2019-01-30T04:29:31.688Z,1.80
2019-01-30T04:30:36.173Z,1.65
2019-01-30T04:31:40.785Z,1.60
2019-01-30T04:32:45.271Z,1.80
2019-01-30T04:33:50.084Z,1.87
2019-01-30T04:34:54.581Z,1.90
2019-01-30T04:35:59.058Z,1.60
2019-01-30T04:37:03.593Z,1.60
2019-01-30T04:38:08.170Z,1.40
2019-01-30T04:39:12.708Z,1.60
2019-01-30T04:40:21.506Z,1.50
2019-01-30T04:41:25.986Z,1.50
2019-01-30T04:42:30.773Z,1.73
2019-01-30T04:43:35.298Z,1.60
2019-01-30T04:44:39.891Z,1.72
2019-01-30T04:45:44.533Z,1.80
2019-01-30T04:46:49.127Z,1.37
2019-01-30T04:47:53.704Z,1.80
2019-01-30T04:48:58.224Z,1.85
2019-01-30T04:50:02.824Z,1.80
2019-01-30T04:51:07.338Z,1.70
2019-01-30T04:52:11.809Z,1.60
2019-01-30T04:53:16.303Z,1.70
2019-01-30T04:54:20.823Z,1.57
2019-01-30T04:55:26.553Z,1.67
2019-01-30T04:56:31.102Z,1.60
2019-01-30T04:57:35.579Z,1.70
2019-01-30T04:58:40.085Z,1.75
2019-01-30T04:59:44.607Z,1.70
2019-01-30T05:00:49.125Z,1.70
2019-01-30T05:01:53.598Z,1.50
2019-01-30T05:02:58.137Z,1.82
2019-01-30T05:04:03.366Z,1.70
2019-01-30T05:05:10.072Z,1.57
2019-01-30T05:06:14.649Z,1.67
2019-01-30T05:07:19.214Z,1.80
2019-01-30T05:08:23.991Z,1.55
2019-01-30T05:09:28.520Z,1.98
2019-01-30T05:10:33.074Z,1.42
2019-01-30T05:11:37.556Z,1.77
2019-01-30T05:12:42.109Z,1.77
2019-01-30T05:13:46.615Z,1.60
2019-01-30T05:14:51.154Z,1.52
2019-01-30T05:15:55.672Z,1.67
2019-01-30T05:17:00.141Z,1.67
2019-01-30T05:18:04.785Z,1.63
2019-01-30T05:19:09.345Z,1.40
2019-01-30T05:20:19.097Z,1.80
2019-01-30T05:21:23.625Z,1.60
2019-01-30T05:22:28.129Z,1.60
2019-01-30T05:23:32.749Z,1.60
2019-01-30T05:24:37.301Z,1.90
2019-01-30T05:25:41.858Z,1.75
2019-01-30T05:26:46.363Z,1.60
2019-01-30T05:27:50.901Z,1.65
2019-01-30T05:28:55.428Z,1.60
2019-01-30T05:29:59.946Z,1.70
2019-01-30T05:31:04.771Z,1.80
2019-01-30T05:32:09.270Z,1.67
2019-01-30T05:33:15.317Z,1.77
2019-01-30T05:34:19.832Z,1.60
2019-01-30T05:35:24.394Z,1.80
2019-01-30T05:36:28.878Z,1.73
2019-01-30T05:37:33.415Z,1.57
2019-01-30T05:38:37.924Z,1.70
2019-01-30T05:39:42.418Z,1.70
2019-01-30T05:40:46.902Z,1.90
2019-01-30T05:41:51.984Z,1.80
2019-01-30T05:42:56.533Z,1.90
2019-01-30T05:44:01.077Z,1.65
2019-01-30T05:45:09.322Z,1.70
2019-01-30T05:46:15.571Z,1.80
2019-01-30T05:47:20.152Z,1.52
2019-01-30T05:48:24.659Z,1.82
2019-01-30T05:49:29.276Z,1.75
2019-01-30T05:50:34.013Z,1.75
2019-01-30T05:51:38.546Z,1.77
2019-01-30T05:52:43.756Z,1.70
2019-01-30T05:53:48.249Z,1.63
2019-01-30T05:54:52.735Z,1.90
2019-01-30T05:55:57.279Z,1.90
2019-01-30T05:57:01.783Z,1.60
2019-01-30T05:58:06.425Z,1.70
2019-01-30T05:59:10.938Z,1.80
2019-01-30T06:00:26.572Z,1.57
2019-01-30T06:01:31.103Z,1.55
2019-01-30T06:02:35.622Z,1.62
2019-01-30T06:03:41.422Z,1.50
2019-01-30T06:04:45.938Z,1.72
2019-01-30T06:05:50.452Z,1.80
2019-01-30T06:06:54.981Z,1.70
2019-01-30T06:07:59.557Z,1.92
2019-01-30T06:09:05.832Z,1.75
2019-01-30T06:10:12.126Z,1.80
2019-01-30T06:11:16.698Z,1.70
2019-01-30T06:12:21.218Z,1.80
2019-01-30T06:13:25.909Z,1.80
2019-01-30T06:14:30.571Z,2.00
2019-01-30T06:15:35.244Z,1.70
2019-01-30T06:16:40.582Z,1.60
2019-01-30T06:17:45.125Z,1.60
2019-01-30T06:18:49.747Z,1.70
2019-01-30T06:19:54.239Z,1.80
2019-01-30T06:20:58.731Z,1.73
2019-01-30T06:22:03.367Z,1.70
2019-01-30T06:23:07.873Z,1.70
2019-01-30T06:24:12.387Z,1.77
2019-01-30T06:25:16.926Z,1.87
2019-01-30T06:26:21.728Z,1.82
2019-01-30T06:27:26.338Z,2.22
2019-01-30T06:28:31.028Z,1.82
2019-01-30T06:29:35.508Z,1.53
2019-01-30T06:30:40.129Z,1.83
2019-01-30T06:31:46.259Z,2.17
2019-01-30T06:32:50.840Z,2.10
2019-01-30T06:33:55.366Z,1.95
2019-01-30T06:35:00.039Z,2.10
2019-01-30T06:36:04.721Z,2.00
2019-01-30T06:37:09.216Z,1.80
2019-01-30T06:38:13.883Z,1.70
2019-01-30T06:39:18.478Z,1.90
2019-01-30T06:40:26.062Z,1.50
2019-01-30T06:41:30.566Z,1.82
2019-01-30T06:42:35.087Z,1.80
2019-01-30T06:43:45.268Z,1.90
2019-01-30T06:44:48.835Z,1.98
2019-01-30T06:45:53.340Z,1.82
2019-01-30T06:46:59.592Z,1.90
2019-01-30T06:48:04.822Z,1.83
2019-01-30T06:49:09.307Z,2.07
2019-01-30T06:50:14.645Z,2.07
2019-01-30T06:51:20.689Z,1.85
2019-01-30T06:52:25.193Z,1.67
2019-01-30T06:53:29.694Z,2.10
2019-01-30T06:54:34.210Z,1.70
2019-01-30T06:55:38.860Z,2.00
2019-01-30T06:56:43.448Z,2.00
2019-01-30T06:57:48.010Z,1.97
2019-01-30T06:58:52.583Z,2.17
2019-01-30T06:59:57.174Z,1.87
2019-01-30T07:01:01.710Z,1.82
2019-01-30T07:02:07.563Z,1.87
2019-01-30T07:03:12.383Z,1.90
2019-01-30T07:04:17.141Z,1.90
2019-01-30T07:09:19.912Z,1.70
2019-01-30T07:10:26.439Z,1.57
2019-01-30T07:11:30.964Z,1.98
2019-01-30T07:12:35.521Z,2.00
2019-01-30T07:13:40.070Z,1.90
2019-01-30T07:20:52.904Z,1.60
2019-01-30T07:26:05.788Z,1.80
2019-01-30T07:27:31.684Z,1.85
2019-01-30T07:28:56.364Z,1.77
2019-01-30T07:30:04.016Z,1.80
2019-01-30T07:31:12.252Z,1.62
2019-01-30T07:32:18.737Z,2.00
2019-01-30T07:33:24.063Z,2.00
2019-01-30T07:34:28.552Z,1.83
2019-01-30T07:35:33.568Z,1.77
2019-01-30T07:36:38.089Z,1.70
2019-01-30T07:37:45.564Z,2.30
2019-01-30T07:38:50.450Z,2.10
2019-01-30T07:39:57.782Z,2.10
2019-01-30T07:41:02.358Z,2.30
2019-01-30T07:42:06.973Z,2.10
2019-01-30T07:43:11.867Z,1.90
2019-01-30T07:44:16.516Z,1.87
2019-01-30T07:45:23.800Z,1.92
2019-01-30T07:46:28.595Z,1.80
2019-01-30T07:47:33.170Z,1.95
2019-01-30T07:48:37.640Z,2.10
2019-01-30T07:49:42.167Z,1.87
2019-01-30T07:50:46.732Z,1.92
2019-01-30T07:51:51.259Z,2.10
2019-01-30T07:52:58.680Z,2.00
2019-01-30T07:54:02.183Z,2.20
2019-01-30T07:55:09.922Z,2.00
2019-01-30T07:56:14.485Z,2.20
2019-01-30T07:57:19.032Z,2.65
2019-01-30T07:58:23.555Z,2.30
2019-01-30T07:59:28.007Z,2.10
2019-01-30T08:00:32.833Z,1.90
2019-01-30T08:01:37.380Z,2.20
2019-01-30T08:02:52.620Z,1.90
2019-01-30T08:03:50.696Z,1.97
2019-01-30T08:04:55.385Z,2.10
2019-01-30T08:06:00.936Z,1.87
2019-01-30T08:07:05.946Z,1.75
2019-01-30T08:08:11.266Z,2.00
2019-01-30T08:09:15.907Z,2.12
2019-01-30T08:10:20.845Z,1.83
2019-01-30T08:11:25.395Z,2.00
2019-01-30T08:12:30.007Z,1.90
2019-01-30T08:13:34.763Z,1.87
2019-01-30T08:14:39.398Z,2.00
2019-01-30T08:15:43.883Z,2.00
2019-01-30T08:16:48.421Z,2.13
2019-01-30T08:17:53.162Z,1.90
2019-01-30T08:18:58.117Z,1.80
2019-01-30T08:20:02.726Z,1.90
2019-01-30T08:21:07.336Z,1.73
2019-01-30T08:22:11.893Z,1.80
2019-01-30T08:23:16.547Z,2.10
2019-01-30T08:24:21.589Z,1.92
2019-01-30T08:25:26.358Z,1.90
2019-01-30T08:26:32.708Z,2.20
2019-01-30T08:27:38.128Z,1.87
2019-01-30T08:28:42.874Z,2.05
2019-01-30T08:29:47.544Z,1.98
2019-01-30T08:30:52.326Z,2.10
2019-01-30T08:31:57.244Z,2.15
2019-01-30T08:33:05.906Z,2.00
2019-01-30T08:34:08.155Z,2.17
2019-01-30T08:35:13.619Z,2.10
2019-01-30T08:36:19.316Z,2.00
2019-01-30T08:37:24.023Z,2.15
2019-01-30T08:38:28.505Z,2.33
2019-01-30T08:39:33.125Z,2.17
2019-01-30T08:40:37.676Z,2.10
2019-01-30T08:41:42.417Z,2.30
2019-01-30T08:42:47.233Z,2.03
2019-01-30T08:43:52.080Z,2.10
2019-01-30T08:44:56.728Z,2.00
2019-01-30T08:46:01.282Z,1.92
2019-01-30T08:47:05.833Z,1.98
2019-01-30T08:48:10.319Z,1.77
2019-01-30T08:49:14.805Z,1.97
2019-01-30T08:50:19.460Z,1.80
2019-01-30T08:51:24.097Z,1.90
2019-01-30T08:52:28.643Z,1.80
2019-01-30T08:53:33.130Z,1.90
2019-01-30T08:54:39.002Z,1.80
2019-01-30T08:55:44.227Z,2.03
2019-01-30T08:56:52.957Z,2.10
2019-01-30T08:57:55.296Z,1.87
2019-01-30T08:58:59.799Z,2.10
2019-01-30T09:00:09.964Z,1.98
2019-01-30T09:01:14.626Z,1.90
2019-01-30T09:02:21.028Z,1.95
2019-01-30T09:03:26.015Z,2.02
2019-01-30T09:04:30.773Z,2.30
2019-01-30T09:05:35.679Z,2.10
2019-01-30T09:06:40.223Z,2.10
2019-01-30T09:07:45.105Z,2.20
2019-01-30T09:08:49.769Z,1.85
2019-01-30T09:09:54.344Z,2.35
2019-01-30T09:10:59.104Z,2.33
2019-01-30T09:12:03.741Z,2.00
2019-01-30T09:13:10.339Z,2.20
2019-01-30T09:14:15.281Z,2.03
2019-01-30T09:15:22.182Z,1.93
2019-01-30T09:16:26.749Z,1.90
2019-01-30T09:17:31.308Z,1.85
2019-01-30T09:18:35.866Z,2.03
2019-01-30T09:19:40.437Z,2.20
2019-01-30T09:20:44.996Z,2.15
2019-01-30T09:21:49.526Z,2.17
2019-01-30T09:22:54.330Z,2.37
2019-01-30T09:23:58.927Z,2.12
2019-01-30T09:25:04.666Z,2.05
2019-01-30T09:26:09.203Z,1.85
2019-01-30T09:27:13.712Z,2.30
2019-01-30T09:28:18.291Z,2.00
2019-01-30T09:29:22.889Z,2.00
2019-01-30T09:30:35.385Z,2.27
2019-01-30T09:31:40.989Z,1.90
2019-01-30T09:32:46.527Z,2.27
2019-01-30T09:33:51.023Z,2.40
2019-01-30T09:34:55.513Z,2.13
2019-01-30T09:36:00.066Z,2.40
2019-01-30T09:37:04.746Z,2.20
2019-01-30T09:38:09.976Z,2.60
2019-01-30T09:39:14.545Z,2.40
2019-01-30T09:40:21.134Z,2.00
2019-01-30T09:41:25.649Z,2.15
2019-01-30T09:42:30.197Z,2.30
2019-01-30T09:43:35.123Z,2.33
2019-01-30T09:44:40.085Z,2.08
2019-01-30T09:45:44.663Z,2.22
2019-01-30T09:46:49.244Z,2.20
2019-01-30T09:47:53.776Z,2.10
2019-01-30T09:48:58.328Z,2.50
2019-01-30T09:50:03.843Z,2.30
2019-01-30T09:51:08.454Z,2.63
2019-01-30T09:52:12.957Z,2.30
2019-01-30T09:53:17.569Z,2.50
2019-01-30T09:54:22.167Z,2.33
2019-01-30T09:55:26.719Z,2.20
2019-01-30T09:56:31.305Z,2.50
2019-01-30T09:57:35.839Z,2.50
2019-01-30T09:58:40.313Z,3.00
2019-01-30T09:59:44.797Z,2.40
2019-01-30T10:00:49.391Z,2.55
2019-01-30T10:01:53.926Z,2.80
2019-01-30T10:02:58.564Z,2.75
2019-01-30T10:04:03.030Z,2.80
2019-01-30T10:05:10.810Z,2.90
2019-01-30T10:06:15.319Z,3.10
2019-01-30T10:07:19.889Z,3.08
2019-01-30T10:08:24.363Z,3.20
2019-01-30T10:09:29.404Z,2.90
2019-01-30T10:10:39.073Z,2.80
2019-01-30T10:11:43.676Z,3.10
2019-01-30T10:12:48.234Z,3.63
2019-01-30T10:13:52.718Z,3.50
2019-01-30T10:14:57.194Z,3.17
2019-01-30T10:16:02.007Z,3.40
2019-01-30T10:17:06.562Z,3.25
2019-01-30T10:18:11.784Z,3.03
2019-01-30T10:19:16.241Z,3.17
2019-01-30T10:20:23.087Z,3.00
2019-01-30T10:21:27.545Z,2.75
2019-01-30T10:22:32.138Z,2.60
2019-01-30T10:23:36.698Z,2.70
2019-01-30T10:24:41.536Z,2.80
2019-01-30T10:25:46.239Z,2.80
2019-01-30T10:26:50.801Z,3.00
2019-01-30T10:27:55.491Z,2.90
2019-01-30T10:29:00.006Z,3.15
2019-01-30T10:30:07.589Z,3.20
2019-01-30T10:31:12.168Z,3.17
2019-01-30T10:32:16.722Z,3.47
2019-01-30T10:33:21.221Z,3.07
2019-01-30T10:34:25.776Z,3.30
2019-01-30T10:35:30.355Z,3.47
2019-01-30T10:36:34.848Z,2.67
2019-01-30T10:37:39.321Z,3.10
2019-01-30T10:38:43.897Z,3.10
2019-01-30T10:39:48.397Z,3.02
2019-01-30T10:40:52.862Z,3.40
2019-01-30T10:41:57.360Z,3.30
2019-01-30T10:43:02.020Z,3.20
2019-01-30T10:44:06.632Z,3.10
2019-01-30T10:45:12.058Z,3.17
2019-01-30T10:46:16.707Z,3.35
2019-01-30T10:47:21.181Z,3.15
2019-01-30T10:48:25.671Z,3.05
2019-01-30T10:49:30.320Z,3.27
2019-01-30T10:50:34.935Z,3.12
2019-01-30T10:51:39.425Z,3.37
2019-01-30T10:52:44.219Z,3.37
2019-01-30T10:53:48.694Z,2.97
2019-01-30T10:54:53.155Z,3.17
2019-01-30T10:55:57.871Z,3.10
2019-01-30T10:57:02.327Z,3.40
2019-01-30T10:58:09.347Z,3.07
2019-01-30T10:59:13.814Z,3.10
2019-01-30T11:00:21.069Z,3.50
2019-01-30T11:01:25.764Z,2.90
2019-01-30T11:02:30.317Z,3.17
2019-01-30T11:03:34.897Z,3.27
2019-01-30T11:04:39.360Z,3.10
2019-01-30T11:05:44.446Z,3.42
2019-01-30T11:06:49.034Z,3.05
2019-01-30T11:07:53.485Z,3.33
2019-01-30T11:08:58.045Z,3.10
2019-01-30T11:10:02.650Z,2.75
2019-01-30T11:11:08.410Z,2.87
2019-01-30T11:12:12.924Z,3.20
2019-01-30T11:13:17.475Z,3.20
2019-01-30T11:14:21.961Z,3.60
2019-01-30T11:15:28.576Z,2.75
2019-01-30T11:16:33.056Z,2.90
2019-01-30T11:17:38.277Z,3.20
2019-01-30T11:18:42.888Z,2.58
2019-01-30T11:19:47.375Z,2.45
2019-01-30T11:20:51.909Z,3.10
2019-01-30T11:21:56.422Z,2.95
2019-01-30T11:23:01.288Z,2.87
2019-01-30T11:24:06.105Z,2.70
2019-01-30T11:25:13.736Z,2.60
2019-01-30T11:26:18.215Z,2.50
2019-01-30T11:27:22.729Z,2.92
2019-01-30T11:28:27.216Z,2.95
2019-01-30T11:29:31.685Z,3.05
2019-01-30T11:30:36.242Z,3.05
2019-01-30T11:31:40.725Z,2.57
2019-01-30T11:32:45.263Z,2.87
2019-01-30T11:33:49.917Z,3.30
2019-01-30T11:34:54.372Z,2.80
2019-01-30T11:35:58.900Z,2.37
2019-01-30T11:37:03.443Z,2.63
2019-01-30T11:38:09.015Z,2.90
2019-01-30T11:39:13.721Z,2.77
2019-01-30T11:40:22.194Z,2.85
2019-01-30T11:41:26.759Z,5.60
2019-01-30T11:42:32.853Z,9.53
2019-01-30T11:43:37.368Z,8.98
2019-01-30T11:44:41.835Z,6.78
2019-01-30T11:45:46.462Z,5.20
2019-01-30T11:46:50.944Z,5.10
2019-01-30T11:47:55.455Z,3.90
2019-01-30T11:48:59.917Z,3.25
2019-01-30T11:50:06.901Z,3.35
2019-01-30T11:51:11.409Z,3.00
2019-01-30T11:52:15.942Z,2.87
2019-01-30T11:53:20.459Z,2.80
2019-01-30T11:54:24.947Z,3.00
2019-01-30T11:55:29.509Z,3.22
2019-01-30T11:56:34.064Z,2.77
2019-01-30T11:57:38.607Z,2.70
2019-01-30T11:58:43.089Z,2.47
2019-01-30T11:59:47.577Z,2.83
2019-01-30T12:00:53.835Z,3.27
2019-01-30T12:01:58.290Z,2.60
2019-01-30T12:03:02.847Z,2.22
2019-01-30T12:04:17.502Z,2.50
2019-01-30T12:05:15.680Z,2.47
2019-01-30T12:06:20.224Z,2.40
2019-01-30T12:07:24.705Z,2.10
2019-01-30T12:08:29.318Z,2.37
2019-01-30T12:09:33.818Z,2.50
2019-01-30T12:10:38.336Z,2.12
2019-01-30T12:11:44.377Z,2.60
2019-01-30T12:12:48.930Z,2.52
2019-01-30T12:13:53.495Z,2.50
2019-01-30T12:14:57.958Z,2.17
2019-01-30T12:16:02.565Z,2.23
2019-01-30T12:17:07.177Z,2.13
2019-01-30T12:18:11.804Z,1.90
2019-01-30T12:19:16.268Z,1.90
2019-01-30T12:20:20.890Z,2.37
2019-01-30T12:21:25.380Z,1.90
2019-01-30T12:22:29.841Z,2.00
2019-01-30T12:23:34.395Z,1.82
2019-01-30T12:24:38.869Z,1.92
2019-01-30T12:25:43.352Z,2.02
2019-01-30T12:26:47.919Z,2.08
2019-01-30T12:27:52.458Z,2.20
2019-01-30T12:28:56.946Z,2.33
2019-01-30T12:30:01.414Z,2.10
2019-01-30T12:31:05.873Z,1.90
2019-01-30T12:32:10.378Z,2.10
2019-01-30T12:33:14.871Z,2.20
2019-01-30T12:34:28.120Z,2.10
2019-01-30T12:35:25.851Z,1.90
2019-01-30T12:36:30.315Z,1.73
2019-01-30T12:37:34.825Z,2.20
2019-01-30T12:38:39.315Z,1.80
2019-01-30T12:39:43.800Z,1.90
2019-01-30T12:40:48.438Z,1.70
2019-01-30T12:41:52.902Z,1.97
2019-01-30T12:42:57.381Z,1.77
2019-01-30T12:44:01.895Z,1.63
2019-01-30T12:45:12.451Z,1.63
2019-01-30T12:46:16.900Z,1.70
2019-01-30T12:47:21.421Z,1.80
2019-01-30T12:48:25.968Z,1.92
2019-01-30T12:49:30.509Z,1.70
2019-01-30T12:50:35.127Z,1.60
2019-01-30T12:51:39.714Z,1.70
2019-01-30T12:52:44.342Z,1.57
2019-01-30T12:53:48.825Z,1.65
2019-01-30T12:54:53.311Z,1.60
2019-01-30T12:55:57.901Z,1.70
2019-01-30T12:57:02.393Z,1.40
2019-01-30T12:58:07.019Z,1.62
2019-01-30T12:59:11.517Z,1.67
2019-01-30T13:00:24.836Z,1.77
2019-01-30T13:01:30.946Z,1.37
2019-01-30T13:02:35.662Z,1.50
2019-01-30T13:03:40.120Z,1.53
2019-01-30T13:04:44.615Z,1.60
2019-01-30T13:05:49.130Z,1.40
2019-01-30T13:06:53.592Z,2.15
2019-01-30T13:07:58.128Z,2.22
2019-01-30T13:09:02.582Z,1.90
2019-01-30T13:10:09.337Z,1.67
2019-01-30T13:11:13.867Z,1.70
2019-01-30T13:12:18.323Z,1.50
2019-01-30T13:13:22.819Z,1.37
2019-01-30T13:14:27.305Z,1.65
2019-01-30T13:15:32.037Z,1.50
2019-01-30T13:16:36.522Z,1.73
2019-01-30T13:17:40.973Z,1.60
2019-01-30T13:18:45.439Z,1.60
2019-01-30T13:19:50.059Z,1.60
2019-01-30T13:20:54.536Z,1.47
2019-01-30T13:21:59.022Z,1.33
2019-01-30T13:23:03.570Z,1.50
2019-01-30T13:24:08.026Z,1.40
2019-01-30T13:25:13.757Z,1.40
2019-01-30T13:26:18.381Z,1.67
2019-01-30T13:27:22.883Z,1.60
2019-01-30T13:28:27.485Z,1.70
2019-01-30T13:29:31.984Z,1.30
2019-01-30T13:30:38.300Z,1.40
2019-01-30T13:31:42.773Z,1.50
2019-01-30T13:32:47.440Z,1.40
2019-01-30T13:33:51.983Z,1.33
2019-01-30T13:34:56.455Z,1.40
2019-01-30T13:36:00.934Z,1.30
2019-01-30T13:37:05.427Z,1.80
2019-01-30T13:38:10.042Z,1.30
2019-01-30T13:39:14.532Z,1.47
2019-01-30T13:40:23.301Z,1.27
2019-01-30T13:41:27.767Z,1.32
2019-01-30T13:42:32.322Z,1.37
2019-01-30T13:43:36.856Z,1.50
2019-01-30T13:44:41.356Z,1.53
2019-01-30T13:45:45.919Z,1.33
2019-01-30T13:46:50.375Z,1.40
2019-01-30T13:47:54.931Z,1.30
2019-01-30T13:48:59.386Z,1.40
2019-01-30T13:50:05.689Z,1.20
2019-01-30T13:51:11.348Z,1.30
2019-01-30T13:52:15.991Z,1.55
2019-01-30T13:53:20.537Z,1.30
2019-01-30T13:54:25.070Z,1.30
2019-01-30T13:55:29.664Z,1.40
2019-01-30T13:56:34.148Z,1.50
2019-01-30T13:57:38.688Z,1.55
2019-01-30T13:58:43.273Z,1.10
2019-01-30T13:59:47.813Z,1.20
2019-01-30T14:00:52.331Z,1.15
2019-01-30T14:01:56.800Z,1.60
2019-01-30T14:03:01.538Z,1.20
2019-01-30T14:04:06.074Z,1.10
2019-01-30T14:05:10.948Z,1.03
2019-01-30T14:06:15.474Z,0.90
2019-01-30T14:07:19.998Z,1.00
2019-01-30T14:08:24.547Z,1.00
2019-01-30T14:09:29.366Z,0.90
2019-01-30T14:10:33.950Z,0.80
2019-01-30T14:11:38.427Z,0.90
2019-01-30T14:12:42.960Z,0.90
2019-01-30T14:13:47.759Z,0.97
2019-01-30T14:14:52.333Z,1.00
2019-01-30T14:15:56.869Z,0.83
2019-01-30T14:17:01.350Z,0.90
2019-01-30T14:18:05.991Z,0.82
2019-01-30T14:19:10.523Z,0.90
2019-01-30T14:20:16.697Z,0.67
2019-01-30T14:21:21.221Z,0.70
2019-01-30T14:22:25.679Z,1.00
2019-01-30T14:23:30.463Z,0.93
2019-01-30T14:24:34.982Z,0.70
2019-01-30T14:25:39.456Z,0.70
2019-01-30T14:26:44.019Z,0.90
2019-01-30T14:27:48.673Z,0.80
2019-01-30T14:28:53.167Z,0.80
2019-01-30T14:29:58.636Z,0.62
2019-01-30T14:31:03.535Z,1.02
2019-01-30T14:32:08.064Z,0.72
2019-01-30T14:33:12.524Z,0.80
2019-01-30T14:34:17.087Z,0.90
2019-01-30T14:35:21.803Z,0.83
2019-01-30T14:36:26.388Z,0.70
2019-01-30T14:37:30.970Z,0.90
2019-01-30T14:38:35.495Z,0.60
2019-01-30T14:39:40.002Z,0.60